sensor_id;sensor_type;location;lat;lon;timestamp;pressure;altitude;pressure_sealevel;temperature;humidity
21960;BME280;11144;43.030;25.108;2023-05-21T00:01:07;99238.31;;;14.07;100.00
21960;BME280;11144;43.030;25.108;2023-05-21T00:02:40;99240.06;;;14.08;100.00
21960;BME280;11144;43.030;25.108;2023-05-21T00:04:14;99239.34;;;14.04;100.00
21960;BME280;11144;43.030;25.108;2023-05-21T00:05:48;99238.47;;;14.04;100.00
21960;BME280;11144;43.030;25.108;2023-05-21T00:07:21;99224.44;;;14.02;100.00
21960;BME280;11144;43.030;25.108;2023-05-21T00:08:56;99227.84;;;14.04;100.00
21960;BME280;11144;43.030;25.108;2023-05-21T00:10:31;99217.53;;;13.98;100.00
21960;BME280;11144;43.030;25.108;2023-05-21T00:12:05;99220.81;;;14.03;100.00
21960;BME280;11144;43.030;25.108;2023-05-21T00:13:38;99221.91;;;13.99;100.00
21960;BME280;11144;43.030;25.108;2023-05-21T00:15:12;99217.53;;;13.98;100.00
21960;BME280;11144;43.030;25.108;2023-05-21T00:16:44;99205.19;;;13.97;100.00
21960;BME280;11144;43.030;25.108;2023-05-21T00:18:18;99205.09;;;13.98;100.00
21960;BME280;11144;43.030;25.108;2023-05-21T00:19:53;99204.88;;;14.03;100.00
21960;BME280;11144;43.030;25.108;2023-05-21T00:21:25;99207.38;;;14.06;100.00
21960;BME280;11144;43.030;25.108;2023-05-21T00:22:59;99196.66;;;14.07;100.00
21960;BME280;11144;43.030;25.108;2023-05-21T00:24:33;99205.31;;;14.11;100.00
21960;BME280;11144;43.030;25.108;2023-05-21T00:26:08;99200.00;;;14.11;100.00
21960;BME280;11144;43.030;25.108;2023-05-21T00:27:41;99204.72;;;14.06;100.00
21960;BME280;11144;43.030;25.108;2023-05-21T00:29:15;99194.88;;;13.91;100.00
21960;BME280;11144;43.030;25.108;2023-05-21T00:30:48;99206.13;;;13.79;100.00
21960;BME280;11144;43.030;25.108;2023-05-21T00:32:22;99199.41;;;13.72;100.00
21960;BME280;11144;43.030;25.108;2023-05-21T00:33:54;99195.09;;;13.69;100.00
21960;BME280;11144;43.030;25.108;2023-05-21T00:35:27;99197.03;;;13.65;100.00
21960;BME280;11144;43.030;25.108;2023-05-21T00:37:01;99201.75;;;13.60;100.00
21960;BME280;11144;43.030;25.108;2023-05-21T00:38:34;99200.78;;;13.61;100.00
21960;BME280;11144;43.030;25.108;2023-05-21T00:40:09;99199.84;;;13.62;100.00
21960;BME280;11144;43.030;25.108;2023-05-21T00:41:45;99194.25;;;13.68;100.00
21960;BME280;11144;43.030;25.108;2023-05-21T00:43:19;99194.78;;;13.75;100.00
21960;BME280;11144;43.030;25.108;2023-05-21T00:44:57;99190.13;;;13.80;100.00
21960;BME280;11144;43.030;25.108;2023-05-21T00:46:30;99191.59;;;13.86;100.00
21960;BME280;11144;43.030;25.108;2023-05-21T00:48:05;99193.16;;;13.90;100.00
21960;BME280;11144;43.030;25.108;2023-05-21T00:49:38;99183.13;;;13.95;100.00
21960;BME280;11144;43.030;25.108;2023-05-21T00:51:12;99184.09;;;13.94;100.00
21960;BME280;11144;43.030;25.108;2023-05-21T00:52:46;99179.78;;;13.91;100.00
21960;BME280;11144;43.030;25.108;2023-05-21T00:54:20;99189.56;;;13.91;100.00
21960;BME280;11144;43.030;25.108;2023-05-21T00:55:53;99169.22;;;13.90;100.00
21960;BME280;11144;43.030;25.108;2023-05-21T00:57:28;99177.22;;;13.90;100.00
21960;BME280;11144;43.030;25.108;2023-05-21T00:59:04;99184.25;;;13.91;100.00
21960;BME280;11144;43.030;25.108;2023-05-21T01:00:37;99177.22;;;13.90;100.00
21960;BME280;11144;43.030;25.108;2023-05-21T01:02:11;99166.88;;;13.84;100.00
21960;BME280;11144;43.030;25.108;2023-05-21T01:03:49;99166.88;;;13.84;100.00
21960;BME280;11144;43.030;25.108;2023-05-21T01:05:23;99174.09;;;13.82;100.00
21960;BME280;11144;43.030;25.108;2023-05-21T01:06:57;99167.03;;;13.81;100.00
21960;BME280;11144;43.030;25.108;2023-05-21T01:08:29;99168.78;;;13.82;100.00
21960;BME280;11144;43.030;25.108;2023-05-21T01:10:04;99168.59;;;13.85;100.00
21960;BME280;11144;43.030;25.108;2023-05-21T01:11:39;99164.28;;;13.82;100.00
21960;BME280;11144;43.030;25.108;2023-05-21T01:13:15;99163.47;;;13.82;100.00
21960;BME280;11144;43.030;25.108;2023-05-21T01:14:48;99161.63;;;13.82;100.00
21960;BME280;11144;43.030;25.108;2023-05-21T01:16:22;99157.13;;;13.84;100.00
21960;BME280;11144;43.030;25.108;2023-05-21T01:17:56;99161.56;;;13.84;100.00
21960;BME280;11144;43.030;25.108;2023-05-21T01:19:29;99163.47;;;13.82;100.00
21960;BME280;11144;43.030;25.108;2023-05-21T01:21:04;99149.59;;;13.75;100.00
21960;BME280;11144;43.030;25.108;2023-05-21T01:24:16;99154.69;;;13.80;100.00
21960;BME280;11144;43.030;25.108;2023-05-21T01:25:49;99155.63;;;13.79;100.00
21960;BME280;11144;43.030;25.108;2023-05-21T01:27:22;99151.09;;;13.81;100.00
21960;BME280;11144;43.030;25.108;2023-05-21T01:28:56;99148.50;;;13.79;100.00
21960;BME280;11144;43.030;25.108;2023-05-21T01:30:29;99152.03;;;13.80;100.00
21960;BME280;11144;43.030;25.108;2023-05-21T01:32:06;99149.38;;;13.80;100.00
21960;BME280;11144;43.030;25.108;2023-05-21T01:33:47;99145.78;;;13.81;100.00
21960;BME280;11144;43.030;25.108;2023-05-21T01:35:26;99147.50;;;13.82;100.00
21960;BME280;11144;43.030;25.108;2023-05-21T01:37:03;99149.69;;;13.73;100.00
21960;BME280;11144;43.030;25.108;2023-05-21T01:38:41;99155.00;;;13.73;100.00
21960;BME280;11144;43.030;25.108;2023-05-21T01:40:22;99145.38;;;13.71;100.00
21960;BME280;11144;43.030;25.108;2023-05-21T01:41:59;99160.31;;;13.73;100.00
21960;BME280;11144;43.030;25.108;2023-05-21T01:43:37;99149.88;;;13.71;100.00
21960;BME280;11144;43.030;25.108;2023-05-21T01:45:12;99162.19;;;13.72;100.00
21960;BME280;11144;43.030;25.108;2023-05-21T01:46:46;99153.28;;;13.73;100.00
21960;BME280;11144;43.030;25.108;2023-05-21T01:48:21;99153.13;;;13.76;100.00
21960;BME280;11144;43.030;25.108;2023-05-21T01:49:55;99153.13;;;13.76;100.00
21960;BME280;11144;43.030;25.108;2023-05-21T01:51:28;99151.09;;;13.81;100.00
21960;BME280;11144;43.030;25.108;2023-05-21T01:53:02;99146.56;;;13.83;100.00
21960;BME280;11144;43.030;25.108;2023-05-21T01:54:37;99152.72;;;13.83;100.00
21960;BME280;11144;43.030;25.108;2023-05-21T01:56:12;99149.91;;;13.86;100.00
21960;BME280;11144;43.030;25.108;2023-05-21T01:57:46;99150.84;;;13.85;100.00
21960;BME280;11144;43.030;25.108;2023-05-21T01:59:20;99151.00;;;13.82;100.00
21960;BME280;11144;43.030;25.108;2023-05-21T02:00:53;99154.53;;;13.83;100.00
21960;BME280;11144;43.030;25.108;2023-05-21T02:02:27;99156.25;;;13.84;100.00
21960;BME280;11144;43.030;25.108;2023-05-21T02:04:01;99159.69;;;13.86;100.00
21960;BME280;11144;43.030;25.108;2023-05-21T02:05:36;99154.38;;;13.86;100.00
21960;BME280;11144;43.030;25.108;2023-05-21T02:07:09;99151.81;;;13.84;100.00
21960;BME280;11144;43.030;25.108;2023-05-21T02:08:45;99155.31;;;13.85;100.00
21960;BME280;11144;43.030;25.108;2023-05-21T02:10:19;99154.53;;;13.83;100.00
21960;BME280;11144;43.030;25.108;2023-05-21T02:11:54;99150.16;;;13.82;100.00
21960;BME280;11144;43.030;25.108;2023-05-21T02:13:28;99152.81;;;13.82;100.00
21960;BME280;11144;43.030;25.108;2023-05-21T02:15:01;99155.31;;;13.85;100.00
21960;BME280;11144;43.030;25.108;2023-05-21T02:16:35;99150.78;;;13.87;100.00
21960;BME280;11144;43.030;25.108;2023-05-21T02:18:09;99147.16;;;13.88;100.00
21960;BME280;11144;43.030;25.108;2023-05-21T02:19:43;99145.63;;;13.84;100.00
21960;BME280;11144;43.030;25.108;2023-05-21T02:21:16;99156.09;;;13.87;100.00
21960;BME280;11144;43.030;25.108;2023-05-21T02:22:51;99156.97;;;13.87;100.00
21960;BME280;11144;43.030;25.108;2023-05-21T02:24:24;99144.75;;;13.83;100.00
21960;BME280;11144;43.030;25.108;2023-05-21T02:25:58;99150.94;;;13.84;100.00
21960;BME280;11144;43.030;25.108;2023-05-21T02:27:32;99160.38;;;13.89;100.00
21960;BME280;11144;43.030;25.108;2023-05-21T02:29:06;99158.41;;;13.93;100.00
21960;BME280;11144;43.030;25.108;2023-05-21T02:30:39;99163.59;;;13.96;100.00
21960;BME280;11144;43.030;25.108;2023-05-21T02:32:13;99158.09;;;13.99;100.00
21960;BME280;11144;43.030;25.108;2023-05-21T02:33:47;99159.06;;;13.98;100.00
21960;BME280;11144;43.030;25.108;2023-05-21T02:35:20;99156.56;;;13.95;100.00
21960;BME280;11144;43.030;25.108;2023-05-21T02:36:53;99158.25;;;13.96;100.00
21960;BME280;11144;43.030;25.108;2023-05-21T02:38:26;99148.72;;;13.92;100.00
21960;BME280;11144;43.030;25.108;2023-05-21T02:40:01;99155.75;;;13.93;100.00
21960;BME280;11144;43.030;25.108;2023-05-21T02:41:34;99157.56;;;13.92;100.00
21960;BME280;11144;43.030;25.108;2023-05-21T02:43:10;99156.72;;;13.92;100.00
21960;BME280;11144;43.030;25.108;2023-05-21T02:44:48;99169.47;;;13.85;100.00
21960;BME280;11144;43.030;25.108;2023-05-21T02:46:22;99148.44;;;13.81;100.00
21960;BME280;11144;43.030;25.108;2023-05-21T02:47:56;99148.50;;;13.79;100.00
21960;BME280;11144;43.030;25.108;2023-05-21T02:49:29;99151.09;;;13.81;100.00
21960;BME280;11144;43.030;25.108;2023-05-21T02:51:05;99157.97;;;13.85;100.00
21960;BME280;11144;43.030;25.108;2023-05-21T02:52:38;99153.34;;;13.88;100.00
21960;BME280;11144;43.030;25.108;2023-05-21T02:54:10;99140.59;;;13.95;100.00
21960;BME280;11144;43.030;25.108;2023-05-21T02:55:43;99138.09;;;13.92;100.00
21960;BME280;11144;43.030;25.108;2023-05-21T02:57:17;99145.69;;;13.99;100.00
21960;BME280;11144;43.030;25.108;2023-05-21T02:58:51;99142.94;;;14.01;100.00
21960;BME280;11144;43.030;25.108;2023-05-21T03:00:24;99144.13;;;13.95;100.00
21960;BME280;11144;43.030;25.108;2023-05-21T03:01:58;99143.56;;;13.89;100.00
21960;BME280;11144;43.030;25.108;2023-05-21T03:03:31;99148.88;;;13.89;100.00
21960;BME280;11144;43.030;25.108;2023-05-21T03:05:06;99147.16;;;13.88;100.00
21960;BME280;11144;43.030;25.108;2023-05-21T03:06:39;99145.13;;;13.93;100.00
21960;BME280;11144;43.030;25.108;2023-05-21T03:08:12;99147.03;;;13.91;100.00
21960;BME280;11144;43.030;25.108;2023-05-21T03:09:45;99141.72;;;13.91;100.00
21960;BME280;11144;43.030;25.108;2023-05-21T03:11:18;99147.16;;;13.88;100.00
21960;BME280;11144;43.030;25.108;2023-05-21T03:12:53;99150.94;;;13.84;100.00
21960;BME280;11144;43.030;25.108;2023-05-21T03:14:27;99153.59;;;13.84;100.00
21960;BME280;11144;43.030;25.108;2023-05-21T03:16:02;99148.34;;;13.82;100.00
21960;BME280;11144;43.030;25.108;2023-05-21T03:17:36;99145.00;;;13.79;100.00
21960;BME280;11144;43.030;25.108;2023-05-21T03:19:11;99152.81;;;13.82;100.00
21960;BME280;11144;43.030;25.108;2023-05-21T03:20:45;99146.50;;;13.84;100.00
21960;BME280;11144;43.030;25.108;2023-05-21T03:22:19;99147.16;;;13.88;100.00
21960;BME280;11144;43.030;25.108;2023-05-21T03:23:52;99155.88;;;13.91;100.00
21960;BME280;11144;43.030;25.108;2023-05-21T03:25:29;99156.84;;;13.89;100.00
21960;BME280;11144;43.030;25.108;2023-05-21T03:27:03;99148.88;;;13.89;100.00
21960;BME280;11144;43.030;25.108;2023-05-21T03:28:37;99154.19;;;13.89;100.00
21960;BME280;11144;43.030;25.108;2023-05-21T03:30:12;99154.19;;;13.89;100.00
21960;BME280;11144;43.030;25.108;2023-05-21T03:32:02;99150.63;;;13.90;100.00
21960;BME280;11144;43.030;25.108;2023-05-21T03:33:36;99152.50;;;13.88;100.00
21960;BME280;11144;43.030;25.108;2023-05-21T03:35:30;99154.19;;;13.89;100.00
21960;BME280;11144;43.030;25.108;2023-05-21T03:37:03;99156.16;;;13.85;100.00
21960;BME280;11144;43.030;25.108;2023-05-21T03:38:38;99160.31;;;13.91;100.00
21960;BME280;11144;43.030;25.108;2023-05-21T03:40:12;99159.06;;;13.98;100.00
21960;BME280;11144;43.030;25.108;2023-05-21T03:41:47;99153.59;;;14.01;100.00
21960;BME280;11144;43.030;25.108;2023-05-21T03:43:28;99151.84;;;14.00;100.00
21960;BME280;11144;43.030;25.108;2023-05-21T03:45:02;99162.47;;;14.00;100.00
21960;BME280;11144;43.030;25.108;2023-05-21T03:46:54;99150.28;;;13.96;100.00
21960;BME280;11144;43.030;25.108;2023-05-21T03:48:31;99154.91;;;13.92;100.00
21960;BME280;11144;43.030;25.108;2023-05-21T03:50:06;99154.84;;;13.94;100.00
21960;BME280;11144;43.030;25.108;2023-05-21T03:51:40;99144.28;;;13.92;100.00
21960;BME280;11144;43.030;25.108;2023-05-21T03:53:18;99155.16;;;13.88;100.00
21960;BME280;11144;43.030;25.108;2023-05-21T03:54:51;99156.16;;;13.85;100.00
21960;BME280;11144;43.030;25.108;2023-05-21T03:56:25;99150.06;;;13.83;100.00
21960;BME280;11144;43.030;25.108;2023-05-21T03:57:57;99151.00;;;13.82;100.00
21960;BME280;11144;43.030;25.108;2023-05-21T03:59:31;99153.34;;;13.88;100.00
21960;BME280;11144;43.030;25.108;2023-05-21T04:01:04;99154.19;;;13.89;100.00
21960;BME280;11144;43.030;25.108;2023-05-21T04:02:41;99153.09;;;13.93;100.00
21960;BME280;11144;43.030;25.108;2023-05-21T04:04:18;99149.59;;;13.92;100.00
21960;BME280;11144;43.030;25.108;2023-05-21T04:05:52;99151.00;;;13.99;100.00
21960;BME280;11144;43.030;25.108;2023-05-21T04:07:26;99152.56;;;14.03;100.00
21960;BME280;11144;43.030;25.108;2023-05-21T04:09:00;99146.38;;;14.03;100.00
21960;BME280;11144;43.030;25.108;2023-05-21T04:10:35;99146.38;;;14.03;100.00
21960;BME280;11144;43.030;25.108;2023-05-21T04:12:08;99146.06;;;14.09;100.00
21960;BME280;11144;43.030;25.108;2023-05-21T04:13:41;99151.22;;;14.12;100.00
21960;BME280;11144;43.030;25.108;2023-05-21T04:15:14;99151.03;;;14.15;100.00
21960;BME280;11144;43.030;25.108;2023-05-21T04:16:50;99145.91;;;14.12;100.00
21960;BME280;11144;43.030;25.108;2023-05-21T04:18:23;99152.13;;;14.11;100.00
21960;BME280;11144;43.030;25.108;2023-05-21T04:19:56;99149.09;;;14.18;100.00
21960;BME280;11144;43.030;25.108;2023-05-21T04:21:30;99153.19;;;14.25;100.00
21960;BME280;11144;43.030;25.108;2023-05-21T04:23:04;99151.03;;;14.32;100.00
21960;BME280;11144;43.030;25.108;2023-05-21T04:24:37;99156.97;;;14.37;100.00
21960;BME280;11144;43.030;25.108;2023-05-21T04:26:17;99151.63;;;14.37;100.00
21960;BME280;11144;43.030;25.108;2023-05-21T04:27:51;99152.50;;;14.37;100.00
21960;BME280;11144;43.030;25.108;2023-05-21T04:29:26;99146.00;;;14.43;100.00
21960;BME280;11144;43.030;25.108;2023-05-21T04:31:01;99151.75;;;14.51;100.00
21960;BME280;11144;43.030;25.108;2023-05-21T04:32:34;99152.19;;;14.59;100.00
21960;BME280;11144;43.030;25.108;2023-05-21T04:34:09;99155.31;;;14.67;100.00
21960;BME280;11144;43.030;25.108;2023-05-21T04:35:42;99155.91;;;14.72;100.00
21960;BME280;11144;43.030;25.108;2023-05-21T04:37:17;99142.28;;;14.78;100.00
21960;BME280;11144;43.030;25.108;2023-05-21T04:38:50;99149.06;;;14.83;100.00
21960;BME280;11144;43.030;25.108;2023-05-21T04:40:25;99151.38;;;14.89;100.00
21960;BME280;11144;43.030;25.108;2023-05-21T04:41:58;99151.88;;;14.96;100.00
21960;BME280;11144;43.030;25.108;2023-05-21T04:43:31;99146.03;;;15.05;100.00
21960;BME280;11144;43.030;25.108;2023-05-21T04:45:05;99151.03;;;15.11;100.00
21960;BME280;11144;43.030;25.108;2023-05-21T04:46:41;99143.47;;;15.19;100.00
21960;BME280;11144;43.030;25.108;2023-05-21T04:48:17;99152.53;;;15.30;100.00
21960;BME280;11144;43.030;25.108;2023-05-21T04:49:53;99156.00;;;15.48;100.00
21960;BME280;11144;43.030;25.108;2023-05-21T04:51:26;99158.16;;;15.71;100.00
21960;BME280;11144;43.030;25.108;2023-05-21T04:52:59;99148.47;;;15.84;100.00
21960;BME280;11144;43.030;25.108;2023-05-21T04:54:32;99144.44;;;16.06;100.00
21960;BME280;11144;43.030;25.108;2023-05-21T04:56:05;99149.13;;;16.31;100.00
21960;BME280;11144;43.030;25.108;2023-05-21T04:57:38;99152.19;;;16.53;100.00
21960;BME280;11144;43.030;25.108;2023-05-21T04:59:11;99146.66;;;16.70;100.00
21960;BME280;11144;43.030;25.108;2023-05-21T05:00:45;99149.97;;;16.88;100.00
21960;BME280;11144;43.030;25.108;2023-05-21T05:02:21;99148.13;;;17.02;100.00
21960;BME280;11144;43.030;25.108;2023-05-21T05:03:55;99149.47;;;16.95;100.00
21960;BME280;11144;43.030;25.108;2023-05-21T05:05:30;99139.75;;;16.94;100.00
21960;BME280;11144;43.030;25.108;2023-05-21T05:07:03;99137.44;;;17.02;100.00
21960;BME280;11144;43.030;25.108;2023-05-21T05:08:37;99130.88;;;17.20;100.00
21960;BME280;11144;43.030;25.108;2023-05-21T05:10:10;99137.69;;;17.52;100.00
21960;BME280;11144;43.030;25.108;2023-05-21T05:11:44;99147.59;;;17.89;100.00
21960;BME280;11144;43.030;25.108;2023-05-21T05:13:18;99143.13;;;18.02;100.00
21960;BME280;11144;43.030;25.108;2023-05-21T05:14:51;99147.53;;;18.03;100.00
21960;BME280;11144;43.030;25.108;2023-05-21T05:16:23;99142.28;;;18.14;100.00
21960;BME280;11144;43.030;25.108;2023-05-21T05:18:00;99146.72;;;18.40;100.00
21960;BME280;11144;43.030;25.108;2023-05-21T05:19:33;99145.09;;;18.50;100.00
21960;BME280;11144;43.030;25.108;2023-05-21T05:21:08;99136.19;;;18.50;100.00
21960;BME280;11144;43.030;25.108;2023-05-21T05:22:42;99142.31;;;18.39;100.00
21960;BME280;11144;43.030;25.108;2023-05-21T05:24:17;99135.84;;;18.29;100.00
21960;BME280;11144;43.030;25.108;2023-05-21T05:25:51;99136.47;;;18.20;100.00
21960;BME280;11144;43.030;25.108;2023-05-21T05:27:24;99134.03;;;18.17;100.00
21960;BME280;11144;43.030;25.108;2023-05-21T05:28:58;99134.16;;;18.28;100.00
21960;BME280;11144;43.030;25.108;2023-05-21T05:30:31;99127.94;;;18.28;100.00
21960;BME280;11144;43.030;25.108;2023-05-21T05:32:15;99130.50;;;18.29;100.00
21960;BME280;11144;43.030;25.108;2023-05-21T05:33:49;99135.44;;;18.35;100.00
21960;BME280;11144;43.030;25.108;2023-05-21T05:35:23;99133.53;;;18.50;100.00
21960;BME280;11144;43.030;25.108;2023-05-21T05:36:58;99117.84;;;18.69;100.00
21960;BME280;11144;43.030;25.108;2023-05-21T05:38:32;99122.31;;;19.17;100.00
21960;BME280;11144;43.030;25.108;2023-05-21T05:40:06;99128.75;;;19.50;100.00
21960;BME280;11144;43.030;25.108;2023-05-21T05:41:40;99118.56;;;19.66;100.00
21960;BME280;11144;43.030;25.108;2023-05-21T05:43:13;99120.81;;;19.83;100.00
21960;BME280;11144;43.030;25.108;2023-05-21T05:44:46;99119.22;;;19.92;100.00
21960;BME280;11144;43.030;25.108;2023-05-21T05:46:20;99116.22;;;20.08;100.00
21960;BME280;11144;43.030;25.108;2023-05-21T05:47:54;99122.75;;;20.16;100.00
21960;BME280;11144;43.030;25.108;2023-05-21T05:49:28;99128.25;;;20.26;100.00
21960;BME280;11144;43.030;25.108;2023-05-21T05:51:01;99119.63;;;20.33;100.00
21960;BME280;11144;43.030;25.108;2023-05-21T05:52:37;99126.06;;;20.53;100.00
21960;BME280;11144;43.030;25.108;2023-05-21T05:54:10;99126.69;;;20.78;100.00
21960;BME280;11144;43.030;25.108;2023-05-21T05:55:44;99112.75;;;21.06;100.00
21960;BME280;11144;43.030;25.108;2023-05-21T05:57:18;99116.50;;;21.26;100.00
21960;BME280;11144;43.030;25.108;2023-05-21T05:58:54;99120.56;;;21.09;100.00
21960;BME280;11144;43.030;25.108;2023-05-21T06:00:28;99123.50;;;20.95;100.00
21960;BME280;11144;43.030;25.108;2023-05-21T06:02:04;99119.34;;;20.80;100.00
21960;BME280;11144;43.030;25.108;2023-05-21T06:03:37;99115.31;;;20.53;100.00
21960;BME280;11144;43.030;25.108;2023-05-21T06:05:17;99113.16;;;20.58;100.00
21960;BME280;11144;43.030;25.108;2023-05-21T06:06:51;99103.97;;;20.71;100.00
21960;BME280;11144;43.030;25.108;2023-05-21T06:08:26;99102.13;;;21.05;100.00
21960;BME280;11144;43.030;25.108;2023-05-21T06:09:59;99109.84;;;21.41;100.00
21960;BME280;11144;43.030;25.108;2023-05-21T06:11:33;99112.06;;;21.67;100.00
21960;BME280;11144;43.030;25.108;2023-05-21T06:13:06;99107.72;;;21.87;100.00
21960;BME280;11144;43.030;25.108;2023-05-21T06:14:40;99094.91;;;22.00;100.00
21960;BME280;11144;43.030;25.108;2023-05-21T06:16:16;99099.44;;;22.20;100.00
21960;BME280;11144;43.030;25.108;2023-05-21T06:17:49;99097.94;;;22.06;100.00
21960;BME280;11144;43.030;25.108;2023-05-21T06:19:23;99093.13;;;22.10;100.00
21960;BME280;11144;43.030;25.108;2023-05-21T06:20:55;99098.88;;;22.26;100.00
21960;BME280;11144;43.030;25.108;2023-05-21T06:22:29;99080.22;;;22.34;100.00
21960;BME280;11144;43.030;25.108;2023-05-21T06:24:04;99089.31;;;22.63;100.00
21960;BME280;11144;43.030;25.108;2023-05-21T06:25:38;99086.28;;;22.86;100.00
21960;BME280;11144;43.030;25.108;2023-05-21T06:27:12;99073.03;;;22.74;100.00
21960;BME280;11144;43.030;25.108;2023-05-21T06:28:46;99073.22;;;22.52;100.00
21960;BME280;11144;43.030;25.108;2023-05-21T06:30:20;99077.44;;;22.45;100.00
21960;BME280;11144;43.030;25.108;2023-05-21T06:31:53;99070.88;;;22.38;100.00
21960;BME280;11144;43.030;25.108;2023-05-21T06:33:26;99068.59;;;22.33;100.00
21960;BME280;11144;43.030;25.108;2023-05-21T06:35:00;99064.84;;;22.25;100.00
21960;BME280;11144;43.030;25.108;2023-05-21T06:36:34;99065.09;;;22.22;100.00
21960;BME280;11144;43.030;25.108;2023-05-21T06:38:06;99061.31;;;22.04;100.00
21960;BME280;11144;43.030;25.108;2023-05-21T06:39:41;99060.09;;;21.56;100.00
21960;BME280;11144;43.030;25.108;2023-05-21T06:41:15;99050.88;;;21.38;100.00
21960;BME280;11144;43.030;25.108;2023-05-21T06:42:55;99055.94;;;21.31;100.00
21960;BME280;11144;43.030;25.108;2023-05-21T06:44:42;99043.97;;;21.24;100.00
21960;BME280;11144;43.030;25.108;2023-05-21T06:46:40;99052.81;;;21.15;100.00
21960;BME280;11144;43.030;25.108;2023-05-21T06:48:14;99047.81;;;21.11;100.00
21960;BME280;11144;43.030;25.108;2023-05-21T06:49:48;99047.81;;;21.11;100.00
21960;BME280;11144;43.030;25.108;2023-05-21T06:51:21;99044.59;;;21.28;100.00
21960;BME280;11144;43.030;25.108;2023-05-21T06:52:55;99046.09;;;21.73;100.00
21960;BME280;11144;43.030;25.108;2023-05-21T06:54:27;99054.41;;;22.11;100.00
21960;BME280;11144;43.030;25.108;2023-05-21T06:56:02;99054.41;;;22.41;100.00
21960;BME280;11144;43.030;25.108;2023-05-21T06:57:47;99049.75;;;22.73;100.00
21960;BME280;11144;43.030;25.108;2023-05-21T06:59:20;99052.59;;;22.81;100.00
21960;BME280;11144;43.030;25.108;2023-05-21T07:00:53;99048.13;;;23.20;100.00
21960;BME280;11144;43.030;25.108;2023-05-21T07:02:27;99053.44;;;23.50;100.00
21960;BME280;11144;43.030;25.108;2023-05-21T07:04:00;99053.56;;;23.86;100.00
21960;BME280;11144;43.030;25.108;2023-05-21T07:05:35;99048.66;;;24.28;100.00
21960;BME280;11144;43.030;25.108;2023-05-21T07:07:09;99050.53;;;24.54;100.00
21960;BME280;11144;43.030;25.108;2023-05-21T07:08:43;99041.13;;;24.58;100.00
21960;BME280;11144;43.030;25.108;2023-05-21T07:10:17;99037.97;;;24.72;100.00
21960;BME280;11144;43.030;25.108;2023-05-21T07:11:52;99034.25;;;24.73;100.00
21960;BME280;11144;43.030;25.108;2023-05-21T07:13:25;99030.13;;;24.96;100.00
21960;BME280;11144;43.030;25.108;2023-05-21T07:14:59;99032.00;;;25.13;100.00
21960;BME280;11144;43.030;25.108;2023-05-21T07:16:33;99034.03;;;25.11;100.00
21960;BME280;11144;43.030;25.108;2023-05-21T07:18:06;99034.31;;;25.08;100.00
21960;BME280;11144;43.030;25.108;2023-05-21T07:19:39;99024.72;;;24.96;100.00
21960;BME280;11144;43.030;25.108;2023-05-21T07:21:13;99027.94;;;24.82;100.00
21960;BME280;11144;43.030;25.108;2023-05-21T07:22:47;99027.75;;;24.66;100.00
21960;BME280;11144;43.030;25.108;2023-05-21T07:24:21;99016.09;;;24.56;100.00
21960;BME280;11144;43.030;25.108;2023-05-21T07:25:54;99018.06;;;24.64;100.00
21960;BME280;11144;43.030;25.108;2023-05-21T07:27:30;99019.00;;;24.72;100.00
21960;BME280;11144;43.030;25.108;2023-05-21T07:29:03;99022.88;;;24.70;100.00
21960;BME280;11144;43.030;25.108;2023-05-21T07:30:37;99024.84;;;24.77;100.00
21960;BME280;11144;43.030;25.108;2023-05-21T07:32:14;99022.22;;;24.85;100.00
21960;BME280;11144;43.030;25.108;2023-05-21T07:33:48;99011.69;;;24.82;100.00
21960;BME280;11144;43.030;25.108;2023-05-21T07:35:24;99012.38;;;24.84;100.00
21960;BME280;11144;43.030;25.108;2023-05-21T07:36:58;99008.91;;;24.74;100.00
21960;BME280;11144;43.030;25.108;2023-05-21T07:38:31;99014.78;;;24.87;100.00
21960;BME280;11144;43.030;25.108;2023-05-21T07:40:05;99013.91;;;24.69;100.00
21960;BME280;11144;43.030;25.108;2023-05-21T07:41:39;99014.06;;;24.58;100.00
21960;BME280;11144;43.030;25.108;2023-05-21T07:43:15;99007.75;;;24.77;100.00
21960;BME280;11144;43.030;25.108;2023-05-21T07:44:48;99006.16;;;25.01;100.00
21960;BME280;11144;43.030;25.108;2023-05-21T07:46:21;99004.78;;;25.15;100.00
21960;BME280;11144;43.030;25.108;2023-05-21T07:47:58;99014.22;;;25.28;100.00
21960;BME280;11144;43.030;25.108;2023-05-21T07:49:34;99005.34;;;25.53;100.00
21960;BME280;11144;43.030;25.108;2023-05-21T07:51:08;99008.31;;;25.85;100.00
21960;BME280;11144;43.030;25.108;2023-05-21T07:52:41;99004.84;;;26.19;100.00
21960;BME280;11144;43.030;25.108;2023-05-21T07:54:15;98998.63;;;26.60;100.00
21960;BME280;11144;43.030;25.108;2023-05-21T07:55:49;99000.03;;;26.80;100.00
21960;BME280;11144;43.030;25.108;2023-05-21T07:57:27;98995.63;;;26.71;100.00
21960;BME280;11144;43.030;25.108;2023-05-21T07:59:05;99003.63;;;26.88;100.00
21960;BME280;11144;43.030;25.108;2023-05-21T08:00:41;99000.13;;;26.96;100.00
21960;BME280;11144;43.030;25.108;2023-05-21T08:02:16;98996.69;;;26.94;100.00
21960;BME280;11144;43.030;25.108;2023-05-21T08:03:50;98990.31;;;27.11;100.00
21960;BME280;11144;43.030;25.108;2023-05-21T08:05:24;98988.06;;;26.98;100.00
21960;BME280;11144;43.030;25.108;2023-05-21T08:06:57;98991.69;;;27.23;100.00
21960;BME280;11144;43.030;25.108;2023-05-21T08:08:31;99000.06;;;27.45;100.00
21960;BME280;11144;43.030;25.108;2023-05-21T08:10:05;98994.78;;;27.44;100.00